Time;durP1;ratioP1;P1;durP2;ratioP2;P2;SDS_P1;SDS_P2;PMS_P1;PMS_P2;Temp;Humidity;BMP_temperature;BMP_pressure;BME280_temperature;BME280_humidity;BME280_pressure;Samples;Min_cycle;Max_cycle;Signal;HPM_P1;HPM_P2
2021/07/14 00:02:13;;;;;;;11.93;2.30;;;;;;;22.18;49.42;99794.63;4869053;29;20048;-73
2021/07/14 00:05:19;;;;;;;9.57;2.47;;;;;;;22.26;49.03;99793.50;4868853;29;20063;-73
2021/07/14 00:08:23;;;;;;;10.45;2.17;;;;;;;22.31;49.36;99805.47;4880031;29;20052;-73
2021/07/14 00:11:29;;;;;;;9.77;2.17;;;;;;;22.28;49.70;99800.44;4880536;29;20392;-74
2021/07/14 00:24:26;;;;;;;8.93;2.50;;;;;;;22.16;50.28;99776.78;4880203;29;20072;-73
2021/07/14 00:27:30;;;;;;;9.27;2.30;;;;;;;22.20;50.38;99773.34;4880400;29;20396;-73
2021/07/14 00:30:36;;;;;;;13.23;2.20;;;;;;;22.27;50.45;99776.88;4868763;29;20044;-74
2021/07/14 00:33:40;;;;;;;7.95;2.25;;;;;;;22.28;50.79;99784.03;4879343;29;20060;-74
2021/07/14 00:36:52;;;;;;;15.35;2.42;;;;;;;22.23;50.76;99774.81;4869020;29;20056;-74
2021/07/14 00:39:56;;;;;;;14.13;2.25;;;;;;;22.11;51.25;99779.34;4880262;29;20052;-74
2021/07/14 00:43:00;;;;;;;14.40;2.42;;;;;;;22.03;51.35;99774.97;4883344;29;20053;-74
2021/07/14 00:46:19;;;;;;;11.95;2.33;;;;;;;21.87;51.82;99772.81;4883610;29;20048;-74
2021/07/14 00:49:23;;;;;;;14.63;2.58;;;;;;;21.75;52.15;99769.91;4872144;29;20389;-73
2021/07/14 00:52:28;;;;;;;10.00;2.65;;;;;;;21.76;52.19;99774.31;4883279;29;20408;-74
2021/07/14 00:55:32;;;;;;;17.83;2.88;;;;;;;21.74;52.31;99776.44;4883185;29;20491;-74
2021/07/14 00:58:36;;;;;;;11.70;2.60;;;;;;;21.70;51.99;99771.63;4871916;29;20507;-74
2021/07/14 01:01:44;;;;;;;8.98;2.05;;;;;;;21.78;51.95;99776.81;4871924;29;20068;-74
2021/07/14 01:04:55;;;;;;;11.20;2.50;;;;;;;21.73;52.24;99787.56;4883255;29;20076;-74
2021/07/14 01:08:02;;;;;;;11.75;2.30;;;;;;;21.77;52.08;99791.56;4882993;29;20056;-74
2021/07/14 01:11:12;;;;;;;10.77;2.17;;;;;;;21.83;52.04;99779.72;4883155;29;20052;-74
2021/07/14 01:14:22;;;;;;;8.63;2.92;;;;;;;21.89;51.84;99787.09;4883143;29;20060;-73
2021/07/14 01:17:26;;;;;;;10.77;1.90;;;;;;;21.90;51.64;99783.28;4882924;29;20044;-74
2021/07/14 01:20:58;;;;;;;8.48;2.47;;;;;;;21.94;51.75;99787.25;4882984;29;20052;-74
2021/07/14 01:24:16;;;;;;;12.80;2.10;;;;;;;21.95;51.79;99789.75;4871754;29;20056;-74
2021/07/14 01:27:21;;;;;;;14.05;2.83;;;;;;;21.85;51.18;99802.25;4883167;29;20389;-74
2021/07/14 01:30:25;;;;;;;8.32;2.03;;;;;;;21.86;51.53;99798.44;4882853;29;20056;-74
2021/07/14 01:33:35;;;;;;;9.68;2.20;;;;;;;21.89;51.40;99807.06;4882285;29;20397;-74
2021/07/14 01:36:44;;;;;;;8.65;2.28;;;;;;;21.93;51.96;99805.53;4870761;29;20072;-74
2021/07/14 01:39:50;;;;;;;8.48;2.13;;;;;;;21.94;52.22;99793.56;4882651;29;20068;-74
2021/07/14 01:43:00;;;;;;;11.45;2.20;;;;;;;21.80;52.88;99786.47;4882624;29;20503;-73
2021/07/14 01:46:07;;;;;;;12.55;2.58;;;;;;;21.65;53.34;99785.94;4882589;29;20068;-73
2021/07/14 01:49:15;;;;;;;8.73;2.03;;;;;;;21.53;53.76;99784.16;4882186;29;20048;-74
2021/07/14 01:52:22;;;;;;;14.13;2.70;;;;;;;21.51;53.65;99783.50;4882492;29;20052;-74
2021/07/14 01:55:33;;;;;;;9.32;2.38;;;;;;;21.44;53.65;99779.97;4881796;29;20060;-74
2021/07/14 01:58:39;;;;;;;11.27;2.90;;;;;;;21.39;54.24;99778.75;4882072;29;20059;-74
2021/07/14 02:01:45;;;;;;;10.00;2.05;;;;;;;21.38;53.58;99777.06;4882074;29;20056;-73
2021/07/14 02:04:50;;;;;;;9.70;2.40;;;;;;;21.34;53.59;99783.19;4882026;29;20056;-74
2021/07/14 02:07:58;;;;;;;9.52;2.50;;;;;;;21.27;53.55;99785.94;4871018;29;20055;-74
2021/07/14 02:11:03;;;;;;;9.07;2.40;;;;;;;21.27;53.53;99776.91;4870614;29;20060;-74
2021/07/14 02:14:07;;;;;;;5.35;1.70;;;;;;;21.26;52.86;99776.06;4882334;29;20488;-74
2021/07/14 02:17:15;;;;;;;8.00;2.10;;;;;;;21.27;51.93;99782.38;4881983;29;20052;-74
2021/07/14 02:20:21;;;;;;;16.80;2.20;;;;;;;21.22;51.72;99776.72;4882004;29;20056;-74
2021/07/14 02:23:25;;;;;;;8.70;2.90;;;;;;;21.29;51.59;99770.19;4881947;29;20072;-74
2021/07/14 02:26:31;;;;;;;13.25;2.63;;;;;;;21.27;51.84;99782.38;4881882;29;20385;-74
2021/07/14 02:29:39;;;;;;;5.75;1.73;;;;;;;21.29;50.79;99781.09;4881825;29;20072;-74
2021/07/14 02:32:45;;;;;;;8.48;1.60;;;;;;;21.26;50.49;99787.00;4881551;29;20127;-74
2021/07/14 02:35:53;;;;;;;8.15;2.20;;;;;;;21.30;49.56;99790.13;4881902;29;20048;-74
2021/07/14 02:39:03;;;;;;;6.18;1.67;;;;;;;21.34;49.08;99785.91;4881079;29;20523;-74
2021/07/14 02:42:17;;;;;;;8.10;1.85;;;;;;;21.34;49.13;99786.75;4881532;29;20052;-74
2021/07/14 02:45:22;;;;;;;;;;;;;;;21.34;49.13;99784.03;4881693;29;20056;-74
2021/07/14 02:48:27;;;;;;;5.80;1.67;;;;;;;21.50;48.31;99793.63;4881399;29;19920;-74
2021/07/14 02:51:34;;;;;;;8.07;1.50;;;;;;;21.65;48.30;99806.97;4881685;29;20158;-74
2021/07/14 02:54:42;;;;;;;4.88;1.67;;;;;;;21.69;48.01;99803.56;4881352;29;20127;-74
2021/07/14 02:57:50;;;;;;;7.95;1.55;;;;;;;21.59;47.64;99818.75;4869740;29;20052;-74
2021/07/14 03:00:57;;;;;;;8.70;1.60;;;;;;;21.51;47.90;99811.66;4870080;29;20056;-74
2021/07/14 03:04:03;;;;;;;6.28;1.80;;;;;;;21.51;48.05;99819.00;4880556;29;20056;-74
2021/07/14 03:07:08;;;;;;;7.93;2.38;;;;;;;21.59;48.10;99814.13;4880908;29;20055;-74
2021/07/14 03:10:17;;;;;;;5.55;1.80;;;;;;;21.68;48.05;99807.34;4881090;29;20056;-75
2021/07/14 03:13:30;;;;;;;4.93;1.42;;;;;;;21.77;48.01;99810.69;4880257;29;20044;-73
2021/07/14 03:16:37;;;;;;;5.35;1.40;;;;;;;21.75;48.43;99794.47;4881238;29;20061;-74
2021/07/14 03:19:43;;;;;;;6.28;1.42;;;;;;;21.73;48.86;99803.97;4880930;29;20060;-74
2021/07/14 03:22:49;;;;;;;4.80;1.52;;;;;;;21.60;49.02;99798.59;4869656;29;20052;-73
2021/07/14 03:25:58;;;;;;;9.00;1.88;;;;;;;21.59;49.14;99803.22;4881076;29;20060;-72
2021/07/14 03:29:03;;;;;;;7.28;1.70;;;;;;;21.52;49.14;99801.56;4880791;29;20405;-73
2021/07/14 03:32:10;;;;;;;11.32;2.15;;;;;;;21.48;49.09;99790.25;4880530;29;20397;-72
2021/07/14 03:35:15;;;;;;;7.65;1.85;;;;;;;21.39;49.53;99807.94;4880263;29;20413;-73
2021/07/14 03:38:20;;;;;;;7.28;1.80;;;;;;;21.42;49.02;99815.69;4880428;29;20401;-73
2021/07/14 03:41:24;;;;;;;8.13;2.05;;;;;;;21.31;48.75;99809.03;4880834;29;20056;-73
2021/07/14 03:44:28;;;;;;;7.80;1.80;;;;;;;21.26;48.79;99822.47;4880819;29;20059;-73
2021/07/14 03:47:34;;;;;;;10.18;2.15;;;;;;;21.27;48.71;99831.53;4880564;29;20119;-73
2021/07/14 03:50:39;;;;;;;6.65;1.90;;;;;;;21.36;48.84;99817.41;4880226;29;20052;-73
2021/07/14 03:53:44;;;;;;;8.00;1.73;;;;;;;21.45;48.87;99828.09;4880718;29;20064;-74
2021/07/14 03:56:48;;;;;;;9.98;1.95;;;;;;;21.56;48.74;99828.22;4880537;29;20076;-75
2021/07/14 03:59:53;;;;;;;7.75;1.67;;;;;;;21.66;48.53;99819.56;4880403;29;20055;-74
2021/07/14 04:02:59;;;;;;;8.75;1.73;;;;;;;21.75;46.89;99813.59;4869113;29;20056;-74
2021/07/14 04:06:07;;;;;;;7.55;1.90;;;;;;;21.90;46.99;99827.00;4879485;29;20048;-73
2021/07/14 04:09:22;;;;;;;9.32;1.80;;;;;;;21.97;47.24;99814.16;4880535;29;20056;-74
2021/07/14 04:12:26;;;;;;;4.00;1.30;;;;;;;22.07;47.41;99821.84;4880526;29;20056;-74
2021/07/14 04:15:30;;;;;;;8.18;1.90;;;;;;;22.19;47.21;99825.53;4880481;29;20119;-74
2021/07/14 04:18:36;;;;;;;10.30;2.53;;;;;;;22.21;46.93;99821.53;4884152;29;20052;-74
2021/07/14 04:21:40;;;;;;;11.30;1.55;;;;;;;22.18;46.77;99829.31;4884315;29;20052;-74
2021/07/14 04:24:45;;;;;;;4.85;1.52;;;;;;;22.35;46.87;99838.66;4873700;29;20056;-74
2021/07/14 04:27:49;;;;;;;6.53;1.55;;;;;;;22.72;45.45;99842.34;4873438;29;20412;-74
2021/07/14 04:30:53;;;;;;;5.60;1.48;;;;;;;23.00;43.88;99827.09;4879039;29;20060;-74
2021/07/14 04:33:57;;;;;;;6.88;1.63;;;;;;;23.17;43.66;99835.53;4864631;29;20056;-74
2021/07/14 04:37:01;;;;;;;10.07;1.63;;;;;;;23.18;43.40;99832.56;4865016;29;20061;-74
2021/07/14 04:40:07;;;;;;;4.70;1.35;;;;;;;23.23;43.49;99832.72;4865394;29;20060;-74
2021/07/14 04:43:11;;;;;;;4.85;1.15;;;;;;;23.15;42.87;99833.03;4883213;29;20068;-74
2021/07/14 04:46:16;;;;;;;4.90;1.70;;;;;;;23.16;43.13;99833.84;4872159;29;20496;-74
2021/07/14 04:49:20;;;;;;;5.38;1.30;;;;;;;23.24;43.20;99833.56;4883121;29;20068;-74
2021/07/14 04:52:24;;;;;;;3.80;1.27;;;;;;;23.30;43.93;99833.50;4871531;29;20064;-74
2021/07/14 04:55:29;;;;;;;7.57;1.70;;;;;;;23.42;44.69;99838.22;4883726;29;20064;-74
2021/07/14 04:58:33;;;;;;;7.70;1.75;;;;;;;23.46;45.49;99836.69;4883278;29;20064;-74
2021/07/14 05:01:37;;;;;;;7.80;1.95;;;;;;;23.59;45.35;99840.09;4883616;29;20052;-74
2021/07/14 05:04:41;;;;;;;8.80;1.95;;;;;;;23.99;44.82;99839.53;4883312;29;20389;-74
2021/07/14 05:07:47;;;;;;;12.73;2.38;;;;;;;24.63;43.73;99839.56;4883033;29;20052;-74
2021/07/14 05:10:52;;;;;;;8.57;2.20;;;;;;;25.48;42.22;99828.88;4871933;29;20060;-74
2021/07/14 05:13:55;;;;;;;9.52;1.88;;;;;;;26.63;40.13;99832.06;4883413;29;20102;-73
2021/07/14 05:17:00;;;;;;;8.63;2.05;;;;;;;27.85;37.66;99829.91;4871254;29;20056;-72
2021/07/14 05:20:06;;;;;;;11.20;2.30;;;;;;;28.13;36.63;99832.41;4883065;29;20048;-75
2021/07/14 05:23:10;;;;;;;9.68;2.10;;;;;;;27.57;37.54;99834.56;4883286;29;20073;-74
2021/07/14 05:26:16;;;;;;;7.53;1.83;;;;;;;26.37;39.53;99850.09;4883031;29;20060;-74
2021/07/14 05:29:20;;;;;;;7.68;1.70;;;;;;;26.11;39.69;99850.72;4881142;29;20052;-73
2021/07/14 05:32:24;;;;;;;12.35;1.60;;;;;;;26.00;40.43;99849.69;4882571;29;20048;-73
2021/07/14 05:35:28;;;;;;;9.02;1.80;;;;;;;25.99;40.38;99853.53;4883100;29;20412;-73
2021/07/14 05:38:33;;;;;;;5.03;1.60;;;;;;;25.82;39.89;99856.22;4871302;29;20056;-73
2021/07/14 05:41:37;;;;;;;6.82;1.40;;;;;;;25.78;39.71;99867.94;4882474;29;20060;-73
2021/07/14 05:44:42;;;;;;;8.45;1.67;;;;;;;25.57;40.01;99860.38;4882354;29;20507;-73
2021/07/14 05:47:49;;;;;;;6.50;1.60;;;;;;;25.39;39.78;99860.53;4871026;29;20115;-73
2021/07/14 05:50:55;;;;;;;5.53;1.25;;;;;;;25.28;40.64;99872.38;4881809;29;20047;-73
2021/07/14 05:54:00;;;;;;;7.07;1.30;;;;;;;25.16;40.96;99861.38;4871856;29;20404;-73
2021/07/14 05:57:04;;;;;;;7.38;1.50;;;;;;;24.95;41.33;99881.25;4881585;29;20056;-73
2021/07/14 06:00:09;;;;;;;11.27;1.65;;;;;;;24.99;40.83;99885.19;4870705;29;20065;-70
2021/07/14 06:03:13;;;;;;;9.55;1.67;;;;;;;26.19;38.71;99892.47;4882239;29;20060;-69
2021/07/14 06:06:18;;;;;;;10.13;1.90;;;;;;;26.94;38.39;99892.91;4870922;29;20060;-72
2021/07/14 06:09:23;;;;;;;10.52;2.08;;;;;;;28.41;35.87;99889.28;4866549;29;20045;-72
2021/07/14 06:12:27;;;;;;;10.38;2.17;;;;;;;29.02;36.63;99885.94;4867356;29;20102;-72
2021/07/14 06:15:32;;;;;;;10.40;1.60;;;;;;;30.54;35.25;99887.41;4879072;29;20071;-72
2021/07/14 06:18:37;;;;;;;9.68;2.13;;;;;;;30.72;34.59;99889.63;4881173;29;20044;-74
2021/07/14 06:21:40;;;;;;;8.43;1.48;;;;;;;30.47;34.60;99895.19;4880066;29;20531;-74
2021/07/14 06:24:44;;;;;;;7.90;1.92;;;;;;;28.50;38.32;99894.06;4880459;29;20056;-73
2021/07/14 06:27:49;;;;;;;5.57;1.70;;;;;;;27.00;40.30;99893.84;4880982;29;20048;-73
2021/07/14 06:30:53;;;;;;;5.30;1.83;;;;;;;25.84;42.03;99905.50;4881543;29;20128;-74
2021/07/14 06:33:58;;;;;;;10.07;1.83;;;;;;;25.29;43.38;99918.00;4881021;29;20064;-74
2021/07/14 06:37:02;;;;;;;7.47;1.52;;;;;;;25.27;43.87;99920.16;4881582;29;20397;-73
2021/07/14 06:40:08;;;;;;;10.43;1.95;;;;;;;24.83;44.90;99918.84;4878794;29;20155;-73
2021/07/14 06:43:15;;;;;;;8.77;2.00;;;;;;;24.26;48.21;99926.72;4892026;29;20051;-73
2021/07/14 06:46:20;;;;;;;5.88;2.00;;;;;;;23.61;50.97;99935.78;4855478;29;20068;-73
2021/07/14 06:49:25;;;;;;;9.52;1.88;;;;;;;23.15;51.87;99944.47;4880827;29;20060;-74
2021/07/14 06:52:29;;;;;;;9.32;2.00;;;;;;;22.73;53.91;99959.81;4880980;29;20401;-73
2021/07/14 06:55:33;;;;;;;5.85;2.03;;;;;;;22.44;56.49;99980.38;4880979;29;20056;-74
2021/07/14 06:58:40;;;;;;;9.50;2.50;;;;;;;22.15;58.66;99986.44;4869333;29;20056;-73
2021/07/14 07:01:44;;;;;;;10.82;2.83;;;;;;;21.64;61.31;100010.16;4880760;29;20430;-72
2021/07/14 07:04:48;;;;;;;9.07;2.70;;;;;;;21.65;62.49;100025.53;4880942;29;20069;-71
2021/07/14 07:07:53;;;;;;;11.85;3.03;;;;;;;21.65;64.83;100029.06;4880605;29;20500;-73
2021/07/14 07:10:58;;;;;;;8.73;2.88;;;;;;;21.69;63.27;100030.34;4880726;29;20104;-71
2021/07/14 07:14:04;;;;;;;10.70;3.08;;;;;;;21.62;64.69;100032.25;4880548;29;20139;-71
2021/07/14 07:17:08;;;;;;;12.32;2.67;;;;;;;21.66;65.64;100028.03;4867936;29;20048;-70
2021/07/14 07:20:14;;;;;;;8.98;2.85;;;;;;;21.59;65.69;100032.66;4876183;29;20060;-72
2021/07/14 07:23:19;;;;;;;9.23;2.47;;;;;;;21.57;65.21;100039.41;4880073;29;20060;-70
2021/07/14 07:26:26;;;;;;;11.57;2.60;;;;;;;21.65;66.17;100041.91;4880357;29;20076;-69
2021/07/14 07:29:30;;;;;;;8.80;2.75;;;;;;;21.76;66.65;100049.44;4879103;29;20071;-71
2021/07/14 07:32:35;;;;;;;8.57;2.40;;;;;;;21.94;65.88;100044.16;4880456;29;20392;-73
2021/07/14 07:35:42;;;;;;;10.63;2.75;;;;;;;21.94;65.35;100022.31;4873255;29;20060;-70
2021/07/14 07:38:46;;;;;;;13.38;3.10;;;;;;;21.95;64.63;100016.59;4865557;29;20061;-71
2021/07/14 07:41:51;;;;;;;9.27;2.50;;;;;;;22.05;66.00;100021.59;4878205;29;20063;-69
2021/07/14 07:44:55;;;;;;;9.60;2.78;;;;;;;22.09;66.63;100022.88;4880035;29;20048;-70
2021/07/14 07:48:00;;;;;;;7.32;2.50;;;;;;;22.39;65.67;100028.63;4872241;29;20400;-71
2021/07/14 07:51:05;;;;;;;13.38;9.40;;;;;;;22.63;63.90;100039.66;4878733;29;20515;-71
2021/07/14 07:54:10;;;;;;;81.18;71.15;;;;;;;22.52;64.11;100056.72;4878189;29;20060;-71
2021/07/14 07:57:15;;;;;;;13.52;4.00;;;;;;;22.34;62.15;100056.63;4879024;29;20041;-71
2021/07/14 08:00:21;;;;;;;6.05;2.33;;;;;;;22.12;60.92;100052.50;4867247;29;20052;-74
2021/07/14 08:03:26;;;;;;;7.25;2.20;;;;;;;21.76;62.05;100060.38;4879552;29;20055;-73
2021/07/14 08:06:30;;;;;;;6.35;2.13;;;;;;;21.10;65.66;100062.34;4867638;29;20056;-71
2021/07/14 08:09:35;;;;;;;5.60;2.15;;;;;;;20.79;65.65;100046.50;4880193;29;20052;-73
2021/07/14 08:12:41;;;;;;;7.35;1.65;;;;;;;20.35;67.89;100043.47;4878546;29;20048;-70
2021/07/14 08:15:47;;;;;;;11.18;1.70;;;;;;;20.13;68.52;100035.44;4879961;29;20503;-71
2021/07/14 08:18:51;;;;;;;8.80;1.55;;;;;;;19.48;69.39;100005.13;4879681;29;20060;-72
2021/07/14 08:21:55;;;;;;;4.65;1.38;;;;;;;19.16;69.67;100000.28;4879943;29;20064;-71
2021/07/14 08:25:00;;;;;;;5.65;1.40;;;;;;;18.61;71.10;99995.66;4879882;29;20060;-71
2021/07/14 08:28:04;;;;;;;6.60;1.40;;;;;;;18.58;72.80;99994.16;4879665;29;20072;-71
2021/07/14 08:31:18;;;;;;;13.27;10.52;;;;;;;18.39;74.77;99991.22;4879525;29;20060;-70
2021/07/14 08:34:23;;;;;;;41.25;30.23;;;;;;;18.69;72.58;100012.66;4857718;29;20060;-70
2021/07/14 08:37:27;;;;;;;11.57;7.90;;;;;;;19.22;72.18;100018.53;4879737;29;20037;-70
2021/07/14 08:40:32;;;;;;;6.18;1.80;;;;;;;19.69;69.88;100032.28;4876919;29;20098;-73
2021/07/14 08:43:46;;;;;;;5.15;1.85;;;;;;;20.62;69.35;100037.06;4879285;29;20060;-70
2021/07/14 08:46:51;;;;;;;3.72;1.80;;;;;;;21.91;66.17;100056.38;4879389;29;20076;-70
2021/07/14 08:49:56;;;;;;;7.53;1.50;;;;;;;23.26;61.74;100059.59;4867306;29;20052;-70
2021/07/14 08:53:00;;;;;;;6.28;1.20;;;;;;;24.01;59.53;100049.38;4879489;29;20052;-70
2021/07/14 08:56:05;;;;;;;6.72;1.25;;;;;;;24.71;56.39;100045.09;4878774;29;20056;-71
2021/07/14 08:59:09;;;;;;;4.10;1.02;;;;;;;24.66;54.85;100041.38;4865322;29;20060;-70
2021/07/14 09:02:14;;;;;;;2.90;0.88;;;;;;;24.79;53.54;100054.94;4880081;29;20052;-70
2021/07/14 09:05:18;;;;;;;5.78;1.20;;;;;;;24.75;53.03;100064.66;4882627;29;20104;-72
2021/07/14 09:08:23;;;;;;;3.20;0.70;;;;;;;25.06;52.98;100068.00;4882864;29;20404;-73
2021/07/14 09:11:28;;;;;;;5.00;1.20;;;;;;;25.38;52.44;100067.72;4882223;29;20048;-74
2021/07/14 09:14:38;;;;;;;4.15;0.80;;;;;;;25.68;51.19;100079.47;4881962;29;20060;-76
2021/07/14 09:17:49;;;;;;;7.07;1.05;;;;;;;26.03;50.18;100068.44;4882064;29;20048;-73
2021/07/14 09:20:53;;;;;;;2.65;0.77;;;;;;;26.29;49.68;100074.25;4882221;29;20056;-72
2021/07/14 09:24:20;;;;;;;3.17;0.85;;;;;;;26.58;48.35;100071.53;4882591;29;20067;-77
2021/07/14 09:27:35;;;;;;;4.07;0.93;;;;;;;26.46;49.87;100086.19;4882382;29;20060;-72
2021/07/14 09:30:41;;;;;;;2.92;0.93;;;;;;;26.44;48.37;100087.53;4882412;29;20056;-73
2021/07/14 09:33:45;;;;;;;2.50;0.70;;;;;;;25.86;48.99;100098.59;4881307;29;20060;-76
2021/07/14 09:36:50;;;;;;;3.95;0.90;;;;;;;25.26;50.56;100097.09;4882276;29;20072;-73
2021/07/14 09:39:54;;;;;;;3.25;1.10;;;;;;;24.56;50.90;100100.44;4882316;29;20056;-76
2021/07/14 09:43:19;;;;;;;3.92;0.93;;;;;;;24.89;50.28;100102.72;4870802;29;20056;-78
2021/07/14 09:46:26;;;;;;;3.72;0.80;;;;;;;25.25;50.80;100103.66;4842933;29;20057;-74
2021/07/14 09:49:35;;;;;;;3.15;1.00;;;;;;;25.08;50.36;100111.75;4843085;29;20053;-73
2021/07/14 09:52:59;;;;;;;2.47;0.70;;;;;;;24.64;50.35;100118.44;4842822;29;20068;-73
2021/07/14 09:56:10;;;;;;;;;;;;;;;24.69;49.90;100110.34;4843591;29;20151;-74
2021/07/14 09:59:16;;;;;;;4.03;0.60;;;;;;;24.65;50.21;100114.66;4847832;29;19920;-72
2021/07/14 10:02:21;;;;;;;3.17;0.80;;;;;;;24.54;51.74;100108.03;4850875;29;20056;-73
2021/07/14 10:05:26;;;;;;;4.07;0.88;;;;;;;24.01;49.74;100108.84;4833933;29;20143;-73
2021/07/14 10:08:32;;;;;;;2.65;0.70;;;;;;;23.70;50.79;100120.78;4842463;29;20053;-73
2021/07/14 10:11:38;;;;;;;3.78;0.90;;;;;;;23.80;51.01;100127.41;4879200;29;20060;-73
2021/07/14 10:14:43;;;;;;;5.45;0.77;;;;;;;23.98;48.92;100118.38;4880850;29;20064;-73
2021/07/14 10:17:49;;;;;;;3.80;0.70;;;;;;;24.16;48.43;100128.56;4880893;29;20052;-72
2021/07/14 10:20:54;;;;;;;2.78;0.60;;;;;;;24.25;47.18;100133.50;4869274;29;20618;-72
2021/07/14 10:24:00;;;;;;;2.28;0.60;;;;;;;23.90;46.94;100124.16;4881639;29;20056;-74
2021/07/14 10:27:05;;;;;;;2.17;0.60;;;;;;;24.06;46.66;100120.84;4881119;29;20084;-72
2021/07/14 10:30:11;;;;;;;2.47;0.63;;;;;;;24.10;47.99;100110.25;4881396;29;20064;-72
2021/07/14 10:33:17;;;;;;;2.60;0.73;;;;;;;24.08;47.92;100126.94;4881138;29;20126;-72
2021/07/14 10:36:27;;;;;;;3.15;0.77;;;;;;;23.70;48.74;100113.38;4869288;29;20139;-73
2021/07/14 10:39:31;;;;;;;3.30;0.70;;;;;;;23.41;50.03;100108.59;4880933;29;20064;-74
2021/07/14 10:42:37;;;;;;;3.05;0.90;;;;;;;23.91;51.44;100106.66;4881058;29;20516;-73
2021/07/14 10:45:42;;;;;;;2.22;0.70;;;;;;;24.11;52.42;100104.56;4881385;29;20068;-72
2021/07/14 10:48:47;;;;;;;4.15;0.80;;;;;;;23.74;51.53;100098.19;4880916;29;20052;-73
2021/07/14 10:51:52;;;;;;;3.03;0.70;;;;;;;23.65;52.02;100095.97;4869397;29;20056;-74
2021/07/14 10:54:59;;;;;;;11.70;1.15;;;;;;;23.32;51.39;100096.22;4869611;29;20499;-72
2021/07/14 10:58:05;;;;;;;2.67;0.90;;;;;;;23.01;52.58;100108.03;4881300;29;20052;-74
2021/07/14 11:01:10;;;;;;;3.53;0.80;;;;;;;23.12;53.01;100101.00;4880718;29;20064;-73
2021/07/14 11:04:26;;;;;;;3.85;0.75;;;;;;;23.12;53.09;100101.84;4869395;29;20523;-73
2021/07/14 11:07:42;;;;;;;33.47;29.83;;;;;;;22.93;52.99;100094.63;4880682;29;20389;-73
2021/07/14 11:10:58;;;;;;;3.13;1.20;;;;;;;22.94;52.76;100088.06;4873776;29;20493;-73
2021/07/14 11:14:11;;;;;;;3.15;0.95;;;;;;;22.90;53.36;100094.22;4898950;29;20052;-72
2021/07/14 11:17:16;;;;;;;2.53;0.98;;;;;;;23.14;53.44;100085.19;4899040;29;20400;-73
2021/07/14 11:20:20;;;;;;;1.85;0.90;;;;;;;23.33;52.80;100086.94;4898898;29;20051;-73
2021/07/14 11:23:27;;;;;;;2.22;0.70;;;;;;;23.42;52.34;100091.09;4898999;29;20063;-74
2021/07/14 11:26:32;;;;;;;3.08;0.90;;;;;;;23.58;51.48;100074.06;4898696;29;20051;-72
2021/07/14 11:29:39;;;;;;;3.15;0.60;;;;;;;23.57;50.56;100072.41;4893767;29;20052;-72
2021/07/14 11:32:44;;;;;;;1.77;0.60;;;;;;;23.73;50.21;100065.50;4858228;29;20124;-73
2021/07/14 11:35:54;;;;;;;3.75;0.88;;;;;;;23.85;48.92;100061.78;4858979;29;20124;-72
2021/07/14 11:39:00;;;;;;;2.63;0.60;;;;;;;23.94;48.85;100065.91;4859735;29;20123;-73
2021/07/14 11:42:20;;;;;;;3.17;0.90;;;;;;;23.86;47.80;100070.84;4859781;29;20060;-73
2021/07/14 11:45:33;;;;;;;3.13;0.85;;;;;;;23.97;49.32;100072.84;4848536;29;20052;-72
2021/07/14 11:48:40;;;;;;;3.20;0.70;;;;;;;24.29;48.15;100057.09;4861445;29;20053;-72
2021/07/14 11:51:45;;;;;;;1.20;0.50;;;;;;;24.47;47.58;100062.53;4866295;29;20127;-72
2021/07/14 11:54:49;;;;;;;47.90;42.75;;;;;;;24.62;47.69;100065.69;4867788;29;20064;-72
2021/07/14 11:57:54;;;;;;;3.05;1.60;;;;;;;24.57;46.34;100073.78;4873784;29;20052;-73
2021/07/14 12:00:59;;;;;;;2.13;0.60;;;;;;;24.62;46.67;100070.34;4876154;29;20420;-72
2021/07/14 12:04:05;;;;;;;1.67;0.80;;;;;;;24.82;45.59;100066.28;4875434;29;20520;-72
2021/07/14 12:07:13;;;;;;;1.75;0.50;;;;;;;24.83;44.74;100061.63;4859277;29;20695;-72
2021/07/14 12:10:18;;;;;;;2.47;0.73;;;;;;;25.06;45.36;100062.53;4859416;29;20060;-73
2021/07/14 12:13:23;;;;;;;2.92;0.90;;;;;;;25.31;45.62;100048.59;4859238;29;20076;-72
2021/07/14 12:16:31;;;;;;;2.45;1.25;;;;;;;25.42;44.98;100050.53;4859571;29;20070;-73
2021/07/14 12:19:45;;;;;;;2.45;0.60;;;;;;;25.47;44.66;100050.66;4861263;29;20389;-72
2021/07/14 12:22:50;;;;;;;3.05;1.33;;;;;;;25.56;44.65;100045.63;4861804;29;20385;-73
2021/07/14 12:26:02;;;;;;;3.13;0.80;;;;;;;25.88;44.98;100048.84;4861847;29;20076;-72
2021/07/14 12:29:22;;;;;;;2.05;0.70;;;;;;;26.39;42.66;100049.69;4861503;29;20512;-73
2021/07/14 12:32:40;;;;;;;2.75;0.70;;;;;;;26.77;42.56;100054.59;4865915;29;20057;-73
2021/07/14 12:35:44;;;;;;;3.45;1.00;;;;;;;27.00;40.92;100059.16;4849953;29;20052;-72
2021/07/14 12:38:56;;;;;;;1.80;0.57;;;;;;;26.82;41.48;100060.19;4864626;29;20410;-73
2021/07/14 12:42:07;;;;;;;1.20;0.55;;;;;;;26.95;41.51;100070.06;4853968;29;20064;-72
2021/07/14 12:45:36;;;;;;;1.42;0.50;;;;;;;26.91;42.25;100061.47;4865040;29;20422;-73
2021/07/14 12:48:40;;;;;;;2.42;0.65;;;;;;;27.07;41.74;100060.66;4865224;29;20389;-73
2021/07/14 12:52:01;;;;;;;1.90;0.65;;;;;;;27.18;41.49;100078.22;4853808;29;20057;-73
2021/07/14 12:55:06;;;;;;;2.13;0.80;;;;;;;27.23;40.81;100074.72;4865107;29;20175;-73
2021/07/14 12:58:13;;;;;;;1.88;0.60;;;;;;;27.28;41.72;100077.56;4864781;29;20076;-73
2021/07/14 13:01:17;;;;;;;3.45;0.95;;;;;;;27.31;41.05;100077.03;4864640;29;20421;-74
2021/07/14 13:04:21;;;;;;;4.75;0.77;;;;;;;27.41;40.93;100078.06;4870501;29;20064;-73
2021/07/14 13:07:28;;;;;;;2.67;0.70;;;;;;;27.54;40.57;100080.50;4883000;29;20073;-72
2021/07/14 13:10:33;;;;;;;4.50;0.88;;;;;;;27.69;39.47;100075.22;4871580;29;20601;-73
2021/07/14 13:13:38;;;;;;;2.55;0.95;;;;;;;27.81;40.95;100080.63;4871462;29;20075;-74
2021/07/14 13:16:43;;;;;;;3.28;0.93;;;;;;;27.43;40.17;100081.41;4871431;29;20433;-72
2021/07/14 13:19:47;;;;;;;2.90;1.13;;;;;;;26.99;40.63;100074.00;4883012;29;20488;-74
2021/07/14 13:23:00;;;;;;;3.30;1.23;;;;;;;26.81;43.11;100077.00;4883004;29;20064;-74
2021/07/14 13:26:05;;;;;;;3.97;0.93;;;;;;;26.55;43.83;100078.38;4882329;29;20056;-72
2021/07/14 13:29:10;;;;;;;4.15;1.02;;;;;;;26.58;44.18;100077.03;4882516;29;20056;-73
2021/07/14 13:32:14;;;;;;;2.95;1.00;;;;;;;26.44;44.47;100069.06;4882107;29;20052;-72
2021/07/14 13:35:19;;;;;;;3.85;0.90;;;;;;;26.26;44.56;100077.53;4882621;29;20056;-73
2021/07/14 13:38:31;;;;;;;2.65;0.85;;;;;;;26.33;44.06;100091.97;4871245;29;20063;-72
2021/07/14 13:41:37;;;;;;;4.75;1.10;;;;;;;26.32;43.22;100087.53;4870705;29;20056;-72
2021/07/14 13:44:43;;;;;;;6.00;1.48;;;;;;;26.07;43.24;100086.16;4882367;29;20068;-72
2021/07/14 13:47:57;;;;;;;3.03;1.00;;;;;;;26.05;44.46;100091.88;4882098;29;20052;-72
2021/07/14 13:51:03;;;;;;;3.05;0.93;;;;;;;26.03;44.73;100104.19;4881955;29;20512;-72
2021/07/14 13:54:28;;;;;;;2.15;0.93;;;;;;;25.91;45.79;100109.72;4882225;29;20072;-72
2021/07/14 13:57:33;;;;;;;2.08;0.85;;;;;;;26.01;46.91;100114.59;4882395;29;20060;-72
2021/07/14 14:00:37;;;;;;;2.92;0.93;;;;;;;26.02;47.00;100124.53;4882185;29;20067;-71
2021/07/14 14:03:41;;;;;;;3.05;1.00;;;;;;;25.96;46.69;100120.84;4881489;29;20060;-73
2021/07/14 14:06:47;;;;;;;2.60;0.75;;;;;;;26.00;47.46;100135.78;4869082;29;20056;-74
2021/07/14 14:09:54;;;;;;;3.63;1.00;;;;;;;25.77;45.60;100138.53;4881553;29;20060;-71
2021/07/14 14:13:02;;;;;;;5.13;1.00;;;;;;;25.58;46.51;100157.03;4881708;29;20512;-72
2021/07/14 14:16:06;;;;;;;4.72;1.27;;;;;;;25.39;49.00;100168.31;4881657;29;20056;-71
2021/07/14 14:19:13;;;;;;;3.47;0.93;;;;;;;24.65;50.13;100157.72;4881626;29;20072;-71
2021/07/14 14:22:36;;;;;;;4.97;1.10;;;;;;;23.98;51.27;100165.00;4881434;29;20080;-72
2021/07/14 14:25:52;;;;;;;5.00;0.85;;;;;;;23.88;51.86;100167.41;4870185;29;20051;-72
2021/07/14 14:28:57;;;;;;;5.75;1.00;;;;;;;23.64;52.40;100169.13;4881386;29;20056;-73
2021/07/14 14:32:01;;;;;;;3.35;0.85;;;;;;;23.41;51.95;100168.03;4869714;29;20089;-74
2021/07/14 14:35:06;;;;;;;3.28;0.90;;;;;;;23.04;54.33;100175.19;4881330;29;20064;-71
2021/07/14 14:38:15;;;;;;;2.90;0.88;;;;;;;22.56;56.35;100161.09;4880997;29;20056;-72
2021/07/14 14:41:20;;;;;;;4.22;1.10;;;;;;;22.15;57.98;100153.22;4880990;29;20516;-71